sensor_id;sensor_type;location;lat;lon;timestamp;temperature;humidity
40914;DHT22;26638;50.990;4.676;2024-02-04T00:00:30;10.90;99.90
40914;DHT22;26638;50.990;4.676;2024-02-04T00:02:56;10.90;99.90
40914;DHT22;26638;50.990;4.676;2024-02-04T00:05:22;10.80;99.90
40914;DHT22;26638;50.990;4.676;2024-02-04T00:07:48;10.80;99.90
40914;DHT22;26638;50.990;4.676;2024-02-04T00:10:14;10.70;99.90
40914;DHT22;26638;50.990;4.676;2024-02-04T00:12:41;10.60;99.90
40914;DHT22;26638;50.990;4.676;2024-02-04T00:15:07;10.70;99.90
40914;DHT22;26638;50.990;4.676;2024-02-04T00:17:33;10.70;99.90
40914;DHT22;26638;50.990;4.676;2024-02-04T00:20:01;10.80;99.90
40914;DHT22;26638;50.990;4.676;2024-02-04T00:22:27;11.00;99.90
40914;DHT22;26638;50.990;4.676;2024-02-04T00:24:53;11.00;99.90
40914;DHT22;26638;50.990;4.676;2024-02-04T00:27:19;11.00;99.90
40914;DHT22;26638;50.990;4.676;2024-02-04T00:29:45;11.20;99.90
40914;DHT22;26638;50.990;4.676;2024-02-04T00:32:11;11.20;99.90
40914;DHT22;26638;50.990;4.676;2024-02-04T00:34:37;11.10;99.90
40914;DHT22;26638;50.990;4.676;2024-02-04T00:37:02;11.00;99.90
40914;DHT22;26638;50.990;4.676;2024-02-04T00:39:28;11.00;99.90
40914;DHT22;26638;50.990;4.676;2024-02-04T00:41:54;11.00;99.90
40914;DHT22;26638;50.990;4.676;2024-02-04T00:44:20;11.00;99.90
40914;DHT22;26638;50.990;4.676;2024-02-04T00:46:45;10.90;99.90
40914;DHT22;26638;50.990;4.676;2024-02-04T00:49:11;10.80;99.90
40914;DHT22;26638;50.990;4.676;2024-02-04T00:51:37;10.80;99.90
40914;DHT22;26638;50.990;4.676;2024-02-04T00:54:03;10.80;99.90
40914;DHT22;26638;50.990;4.676;2024-02-04T00:56:28;10.90;99.90
40914;DHT22;26638;50.990;4.676;2024-02-04T00:58:54;11.00;99.90
40914;DHT22;26638;50.990;4.676;2024-02-04T01:01:20;11.00;99.90
40914;DHT22;26638;50.990;4.676;2024-02-04T01:03:46;10.90;99.90
40914;DHT22;26638;50.990;4.676;2024-02-04T01:06:12;10.80;99.90
40914;DHT22;26638;50.990;4.676;2024-02-04T01:08:37;10.80;99.90
40914;DHT22;26638;50.990;4.676;2024-02-04T01:11:06;10.90;99.90
40914;DHT22;26638;50.990;4.676;2024-02-04T01:13:32;10.90;99.90
40914;DHT22;26638;50.990;4.676;2024-02-04T01:15:58;10.90;99.90
40914;DHT22;26638;50.990;4.676;2024-02-04T01:18:23;10.90;99.90
40914;DHT22;26638;50.990;4.676;2024-02-04T01:20:49;10.90;99.90
40914;DHT22;26638;50.990;4.676;2024-02-04T01:23:15;11.00;99.90
40914;DHT22;26638;50.990;4.676;2024-02-04T01:25:44;11.00;99.90
40914;DHT22;26638;50.990;4.676;2024-02-04T01:28:10;10.90;99.90
40914;DHT22;26638;50.990;4.676;2024-02-04T01:30:35;10.80;99.90
40914;DHT22;26638;50.990;4.676;2024-02-04T01:33:03;10.80;99.90
40914;DHT22;26638;50.990;4.676;2024-02-04T01:35:28;10.90;99.90
40914;DHT22;26638;50.990;4.676;2024-02-04T01:37:54;11.00;99.90
40914;DHT22;26638;50.990;4.676;2024-02-04T01:40:20;11.00;99.90
40914;DHT22;26638;50.990;4.676;2024-02-04T01:42:46;10.90;99.90
40914;DHT22;26638;50.990;4.676;2024-02-04T01:45:12;10.90;99.90
40914;DHT22;26638;50.990;4.676;2024-02-04T01:47:37;10.90;99.90
40914;DHT22;26638;50.990;4.676;2024-02-04T01:50:04;10.90;99.90
40914;DHT22;26638;50.990;4.676;2024-02-04T01:52:34;11.00;99.90
40914;DHT22;26638;50.990;4.676;2024-02-04T01:55:01;11.00;99.90
40914;DHT22;26638;50.990;4.676;2024-02-04T01:57:28;11.00;99.90
40914;DHT22;26638;50.990;4.676;2024-02-04T01:59:58;11.00;99.90
40914;DHT22;26638;50.990;4.676;2024-02-04T02:02:28;11.00;99.90
40914;DHT22;26638;50.990;4.676;2024-02-04T02:04:54;10.90;99.90
40914;DHT22;26638;50.990;4.676;2024-02-04T02:07:20;11.00;99.90
40914;DHT22;26638;50.990;4.676;2024-02-04T02:09:47;11.00;99.90
40914;DHT22;26638;50.990;4.676;2024-02-04T02:13:20;11.00;99.90
40914;DHT22;26638;50.990;4.676;2024-02-04T02:15:22;11.00;99.90
40914;DHT22;26638;50.990;4.676;2024-02-04T02:18:04;11.00;99.90
40914;DHT22;26638;50.990;4.676;2024-02-04T02:23:22;11.00;99.90
40914;DHT22;26638;50.990;4.676;2024-02-04T02:25:47;11.10;99.90
40914;DHT22;26638;50.990;4.676;2024-02-04T02:28:16;11.10;99.90
40914;DHT22;26638;50.990;4.676;2024-02-04T02:30:41;11.10;99.90
40914;DHT22;26638;50.990;4.676;2024-02-04T02:33:07;11.00;99.90
40914;DHT22;26638;50.990;4.676;2024-02-04T02:35:34;11.00;99.90
40914;DHT22;26638;50.990;4.676;2024-02-04T02:43:01;11.20;99.90
40914;DHT22;26638;50.990;4.676;2024-02-04T02:45:27;11.30;99.90
40914;DHT22;26638;50.990;4.676;2024-02-04T02:47:53;11.50;99.90
40914;DHT22;26638;50.990;4.676;2024-02-04T02:50:19;11.40;99.90
40914;DHT22;26638;50.990;4.676;2024-02-04T02:52:44;11.40;99.90
40914;DHT22;26638;50.990;4.676;2024-02-04T02:55:10;11.30;99.90
40914;DHT22;26638;50.990;4.676;2024-02-04T02:57:36;11.20;99.90
40914;DHT22;26638;50.990;4.676;2024-02-04T03:00:01;11.10;99.90
40914;DHT22;26638;50.990;4.676;2024-02-04T03:02:28;11.20;99.90
40914;DHT22;26638;50.990;4.676;2024-02-04T03:04:54;11.10;99.90
40914;DHT22;26638;50.990;4.676;2024-02-04T03:07:20;11.00;99.90
40914;DHT22;26638;50.990;4.676;2024-02-04T03:09:45;11.00;99.90
40914;DHT22;26638;50.990;4.676;2024-02-04T03:12:11;11.00;99.90
40914;DHT22;26638;50.990;4.676;2024-02-04T03:14:36;11.00;99.90
40914;DHT22;26638;50.990;4.676;2024-02-04T03:17:02;11.20;99.90
40914;DHT22;26638;50.990;4.676;2024-02-04T03:19:27;11.20;99.90
40914;DHT22;26638;50.990;4.676;2024-02-04T03:21:53;11.20;99.90
40914;DHT22;26638;50.990;4.676;2024-02-04T03:24:19;11.20;99.90
40914;DHT22;26638;50.990;4.676;2024-02-04T03:26:44;11.20;99.90
40914;DHT22;26638;50.990;4.676;2024-02-04T03:29:10;11.10;99.90
40914;DHT22;26638;50.990;4.676;2024-02-04T03:31:35;11.00;99.90
40914;DHT22;26638;50.990;4.676;2024-02-04T03:34:01;11.10;99.90
40914;DHT22;26638;50.990;4.676;2024-02-04T03:36:27;11.20;99.90
40914;DHT22;26638;50.990;4.676;2024-02-04T03:38:53;11.10;99.90
40914;DHT22;26638;50.990;4.676;2024-02-04T03:41:19;11.10;99.90
40914;DHT22;26638;50.990;4.676;2024-02-04T03:43:44;11.00;99.90
40914;DHT22;26638;50.990;4.676;2024-02-04T03:46:13;11.10;99.90
40914;DHT22;26638;50.990;4.676;2024-02-04T03:48:39;11.20;99.90
40914;DHT22;26638;50.990;4.676;2024-02-04T03:51:05;11.20;99.90
40914;DHT22;26638;50.990;4.676;2024-02-04T03:53:31;11.20;99.90
40914;DHT22;26638;50.990;4.676;2024-02-04T03:55:56;11.20;99.90
40914;DHT22;26638;50.990;4.676;2024-02-04T03:58:23;11.20;99.90
40914;DHT22;26638;50.990;4.676;2024-02-04T04:00:55;11.20;99.90
40914;DHT22;26638;50.990;4.676;2024-02-04T04:03:22;11.10;99.90
40914;DHT22;26638;50.990;4.676;2024-02-04T04:05:48;11.10;99.90
40914;DHT22;26638;50.990;4.676;2024-02-04T04:08:14;11.10;99.90
40914;DHT22;26638;50.990;4.676;2024-02-04T04:10:40;11.10;99.90
40914;DHT22;26638;50.990;4.676;2024-02-04T04:13:05;11.20;99.90
40914;DHT22;26638;50.990;4.676;2024-02-04T04:15:31;11.40;99.90
40914;DHT22;26638;50.990;4.676;2024-02-04T04:17:57;11.50;99.90
40914;DHT22;26638;50.990;4.676;2024-02-04T04:20:22;11.50;99.90
40914;DHT22;26638;50.990;4.676;2024-02-04T04:22:48;11.40;99.90
40914;DHT22;26638;50.990;4.676;2024-02-04T04:25:14;11.30;99.90
40914;DHT22;26638;50.990;4.676;2024-02-04T04:27:40;11.20;99.90
40914;DHT22;26638;50.990;4.676;2024-02-04T04:30:06;11.20;99.90
40914;DHT22;26638;50.990;4.676;2024-02-04T04:32:32;11.10;99.90
40914;DHT22;26638;50.990;4.676;2024-02-04T04:34:58;11.10;99.90
40914;DHT22;26638;50.990;4.676;2024-02-04T04:37:24;11.10;99.90
40914;DHT22;26638;50.990;4.676;2024-02-04T04:39:49;11.10;99.90
40914;DHT22;26638;50.990;4.676;2024-02-04T04:42:15;11.10;99.90
40914;DHT22;26638;50.990;4.676;2024-02-04T04:44:41;11.10;99.90
40914;DHT22;26638;50.990;4.676;2024-02-04T04:47:06;11.10;99.90
40914;DHT22;26638;50.990;4.676;2024-02-04T04:49:32;11.10;99.90
40914;DHT22;26638;50.990;4.676;2024-02-04T04:51:58;11.10;99.90
40914;DHT22;26638;50.990;4.676;2024-02-04T04:54:24;11.00;99.90
40914;DHT22;26638;50.990;4.676;2024-02-04T04:56:49;11.00;99.90
40914;DHT22;26638;50.990;4.676;2024-02-04T04:59:16;10.90;99.90
40914;DHT22;26638;50.990;4.676;2024-02-04T05:01:46;10.90;99.90
40914;DHT22;26638;50.990;4.676;2024-02-04T05:04:11;11.00;99.90
40914;DHT22;26638;50.990;4.676;2024-02-04T05:06:37;11.00;99.90
40914;DHT22;26638;50.990;4.676;2024-02-04T05:09:03;10.90;99.90
40914;DHT22;26638;50.990;4.676;2024-02-04T05:11:28;10.90;99.90
40914;DHT22;26638;50.990;4.676;2024-02-04T05:13:54;10.90;99.90
40914;DHT22;26638;50.990;4.676;2024-02-04T05:16:20;10.90;99.90
40914;DHT22;26638;50.990;4.676;2024-02-04T05:18:45;11.00;99.90
40914;DHT22;26638;50.990;4.676;2024-02-04T05:21:11;11.00;99.90
40914;DHT22;26638;50.990;4.676;2024-02-04T05:23:37;11.00;99.90
40914;DHT22;26638;50.990;4.676;2024-02-04T05:26:03;10.90;99.90
40914;DHT22;26638;50.990;4.676;2024-02-04T05:28:30;10.90;99.90
40914;DHT22;26638;50.990;4.676;2024-02-04T05:30:55;10.90;99.90
40914;DHT22;26638;50.990;4.676;2024-02-04T05:33:21;11.00;99.90
40914;DHT22;26638;50.990;4.676;2024-02-04T05:35:47;11.00;99.90
40914;DHT22;26638;50.990;4.676;2024-02-04T05:38:13;11.00;99.90
40914;DHT22;26638;50.990;4.676;2024-02-04T05:40:38;11.00;99.90
40914;DHT22;26638;50.990;4.676;2024-02-04T05:43:05;10.90;99.90
40914;DHT22;26638;50.990;4.676;2024-02-04T05:45:33;10.90;99.90
40914;DHT22;26638;50.990;4.676;2024-02-04T05:48:00;11.00;99.90
40914;DHT22;26638;50.990;4.676;2024-02-04T05:50:25;11.10;99.90
40914;DHT22;26638;50.990;4.676;2024-02-04T05:52:51;11.20;99.90
40914;DHT22;26638;50.990;4.676;2024-02-04T05:55:17;11.10;99.90
40914;DHT22;26638;50.990;4.676;2024-02-04T05:57:43;11.10;99.90
40914;DHT22;26638;50.990;4.676;2024-02-04T06:00:09;11.10;99.90
40914;DHT22;26638;50.990;4.676;2024-02-04T06:02:36;11.00;99.90
40914;DHT22;26638;50.990;4.676;2024-02-04T06:05:02;10.90;99.90
40914;DHT22;26638;50.990;4.676;2024-02-04T06:07:28;10.90;99.90
40914;DHT22;26638;50.990;4.676;2024-02-04T06:09:57;11.00;99.90
40914;DHT22;26638;50.990;4.676;2024-02-04T06:12:27;11.00;99.90
40914;DHT22;26638;50.990;4.676;2024-02-04T06:14:53;11.00;99.90
40914;DHT22;26638;50.990;4.676;2024-02-04T06:17:19;11.00;99.90
40914;DHT22;26638;50.990;4.676;2024-02-04T06:19:45;11.00;99.90
40914;DHT22;26638;50.990;4.676;2024-02-04T06:22:10;11.00;99.90
40914;DHT22;26638;50.990;4.676;2024-02-04T06:24:36;11.00;99.90
40914;DHT22;26638;50.990;4.676;2024-02-04T06:27:04;11.10;99.90
40914;DHT22;26638;50.990;4.676;2024-02-04T06:29:30;11.10;99.90
40914;DHT22;26638;50.990;4.676;2024-02-04T06:31:56;11.10;99.90
40914;DHT22;26638;50.990;4.676;2024-02-04T06:34:21;11.00;99.90
40914;DHT22;26638;50.990;4.676;2024-02-04T06:36:48;11.00;99.90
40914;DHT22;26638;50.990;4.676;2024-02-04T06:39:14;10.90;99.90
40914;DHT22;26638;50.990;4.676;2024-02-04T06:41:40;10.90;99.90
40914;DHT22;26638;50.990;4.676;2024-02-04T06:44:06;10.90;99.90
40914;DHT22;26638;50.990;4.676;2024-02-04T06:46:32;10.90;99.90
40914;DHT22;26638;50.990;4.676;2024-02-04T06:48:58;11.00;99.90
40914;DHT22;26638;50.990;4.676;2024-02-04T06:51:24;11.00;99.90
40914;DHT22;26638;50.990;4.676;2024-02-04T06:53:50;11.00;99.90
40914;DHT22;26638;50.990;4.676;2024-02-04T06:56:15;11.00;99.90
40914;DHT22;26638;50.990;4.676;2024-02-04T06:58:42;11.10;99.90
40914;DHT22;26638;50.990;4.676;2024-02-04T07:01:08;11.30;99.90
40914;DHT22;26638;50.990;4.676;2024-02-04T07:03:33;11.30;99.90
40914;DHT22;26638;50.990;4.676;2024-02-04T07:06:00;11.30;99.90
40914;DHT22;26638;50.990;4.676;2024-02-04T07:08:26;11.20;99.90
40914;DHT22;26638;50.990;4.676;2024-02-04T07:10:52;11.10;99.90
40914;DHT22;26638;50.990;4.676;2024-02-04T07:13:18;11.10;99.90
40914;DHT22;26638;50.990;4.676;2024-02-04T07:15:45;11.10;99.90
40914;DHT22;26638;50.990;4.676;2024-02-04T07:18:11;11.10;99.90
40914;DHT22;26638;50.990;4.676;2024-02-04T07:20:37;11.10;99.90
40914;DHT22;26638;50.990;4.676;2024-02-04T07:23:03;11.00;99.90
40914;DHT22;26638;50.990;4.676;2024-02-04T07:25:29;11.00;99.90
40914;DHT22;26638;50.990;4.676;2024-02-04T07:27:55;11.00;99.90
40914;DHT22;26638;50.990;4.676;2024-02-04T07:30:22;11.40;99.90
40914;DHT22;26638;50.990;4.676;2024-02-04T07:32:48;11.00;99.90
40914;DHT22;26638;50.990;4.676;2024-02-04T07:35:13;11.10;99.90
40914;DHT22;26638;50.990;4.676;2024-02-04T07:37:39;11.20;99.90
40914;DHT22;26638;50.990;4.676;2024-02-04T07:40:05;11.10;99.90
40914;DHT22;26638;50.990;4.676;2024-02-04T07:42:31;11.20;99.90
40914;DHT22;26638;50.990;4.676;2024-02-04T07:44:58;11.20;99.90
40914;DHT22;26638;50.990;4.676;2024-02-04T07:47:23;11.20;99.90
40914;DHT22;26638;50.990;4.676;2024-02-04T07:49:50;11.00;99.90
40914;DHT22;26638;50.990;4.676;2024-02-04T07:52:16;11.20;99.90
40914;DHT22;26638;50.990;4.676;2024-02-04T07:54:42;11.20;99.90
40914;DHT22;26638;50.990;4.676;2024-02-04T07:57:09;11.20;99.90
40914;DHT22;26638;50.990;4.676;2024-02-04T07:59:35;11.20;99.90
40914;DHT22;26638;50.990;4.676;2024-02-04T08:02:01;11.20;99.90
40914;DHT22;26638;50.990;4.676;2024-02-04T08:04:27;11.20;99.90
40914;DHT22;26638;50.990;4.676;2024-02-04T08:06:53;11.10;99.90
40914;DHT22;26638;50.990;4.676;2024-02-04T08:09:19;11.10;99.90
40914;DHT22;26638;50.990;4.676;2024-02-04T08:11:45;11.10;99.90
40914;DHT22;26638;50.990;4.676;2024-02-04T08:14:11;11.10;99.90
40914;DHT22;26638;50.990;4.676;2024-02-04T08:16:36;11.20;99.90
40914;DHT22;26638;50.990;4.676;2024-02-04T08:19:02;11.30;99.90
40914;DHT22;26638;50.990;4.676;2024-02-04T08:21:28;11.40;99.90
40914;DHT22;26638;50.990;4.676;2024-02-04T08:23:56;11.30;99.90
40914;DHT22;26638;50.990;4.676;2024-02-04T08:26:22;11.30;99.90
40914;DHT22;26638;50.990;4.676;2024-02-04T08:28:48;11.30;99.90
40914;DHT22;26638;50.990;4.676;2024-02-04T08:31:14;11.20;99.90
40914;DHT22;26638;50.990;4.676;2024-02-04T08:33:39;11.20;99.90
40914;DHT22;26638;50.990;4.676;2024-02-04T08:36:05;11.30;99.90
40914;DHT22;26638;50.990;4.676;2024-02-04T08:38:32;11.20;99.90
40914;DHT22;26638;50.990;4.676;2024-02-04T08:40:58;11.30;99.90
40914;DHT22;26638;50.990;4.676;2024-02-04T08:43:23;11.20;99.90
40914;DHT22;26638;50.990;4.676;2024-02-04T08:45:49;11.30;99.90
40914;DHT22;26638;50.990;4.676;2024-02-04T08:48:15;11.20;99.90
40914;DHT22;26638;50.990;4.676;2024-02-04T08:50:40;11.20;99.90
40914;DHT22;26638;50.990;4.676;2024-02-04T08:53:06;11.30;99.90
40914;DHT22;26638;50.990;4.676;2024-02-04T08:55:32;11.40;99.90
40914;DHT22;26638;50.990;4.676;2024-02-04T08:57:58;11.60;99.90
40914;DHT22;26638;50.990;4.676;2024-02-04T09:00:23;11.80;99.90
40914;DHT22;26638;50.990;4.676;2024-02-04T09:02:49;11.90;99.90
40914;DHT22;26638;50.990;4.676;2024-02-04T09:05:15;12.10;99.90
40914;DHT22;26638;50.990;4.676;2024-02-04T09:07:42;12.10;99.90
40914;DHT22;26638;50.990;4.676;2024-02-04T09:10:07;12.00;99.90
40914;DHT22;26638;50.990;4.676;2024-02-04T09:12:33;12.00;99.90
40914;DHT22;26638;50.990;4.676;2024-02-04T09:14:59;12.00;99.90
40914;DHT22;26638;50.990;4.676;2024-02-04T09:17:28;11.80;99.90
40914;DHT22;26638;50.990;4.676;2024-02-04T09:19:53;11.60;99.90
40914;DHT22;26638;50.990;4.676;2024-02-04T09:22:19;11.60;99.90
40914;DHT22;26638;50.990;4.676;2024-02-04T09:24:44;11.60;99.90
40914;DHT22;26638;50.990;4.676;2024-02-04T09:27:10;11.50;99.90
40914;DHT22;26638;50.990;4.676;2024-02-04T09:29:36;11.60;99.90
40914;DHT22;26638;50.990;4.676;2024-02-04T09:32:02;11.60;99.90
40914;DHT22;26638;50.990;4.676;2024-02-04T09:34:27;11.50;99.90
40914;DHT22;26638;50.990;4.676;2024-02-04T09:36:53;11.50;99.90
40914;DHT22;26638;50.990;4.676;2024-02-04T09:39:19;11.40;99.90
40914;DHT22;26638;50.990;4.676;2024-02-04T09:41:45;11.60;99.90
40914;DHT22;26638;50.990;4.676;2024-02-04T09:44:12;11.60;99.90
40914;DHT22;26638;50.990;4.676;2024-02-04T09:46:38;11.60;99.90
40914;DHT22;26638;50.990;4.676;2024-02-04T09:49:04;11.70;99.90
40914;DHT22;26638;50.990;4.676;2024-02-04T09:51:30;11.60;99.90
40914;DHT22;26638;50.990;4.676;2024-02-04T09:54:00;11.70;99.90
40914;DHT22;26638;50.990;4.676;2024-02-04T09:56:29;11.70;99.90
40914;DHT22;26638;50.990;4.676;2024-02-04T09:58:55;11.70;99.90
40914;DHT22;26638;50.990;4.676;2024-02-04T10:01:22;11.70;99.90
40914;DHT22;26638;50.990;4.676;2024-02-04T10:03:48;11.70;99.90
40914;DHT22;26638;50.990;4.676;2024-02-04T10:06:14;11.70;99.90
40914;DHT22;26638;50.990;4.676;2024-02-04T10:08:40;11.70;99.90
40914;DHT22;26638;50.990;4.676;2024-02-04T10:11:05;11.70;99.90
40914;DHT22;26638;50.990;4.676;2024-02-04T10:13:48;11.80;99.90
40914;DHT22;26638;50.990;4.676;2024-02-04T10:16:14;11.80;99.90
40914;DHT22;26638;50.990;4.676;2024-02-04T10:18:47;11.70;99.90
40914;DHT22;26638;50.990;4.676;2024-02-04T10:21:24;11.80;99.90
40914;DHT22;26638;50.990;4.676;2024-02-04T10:23:51;11.80;99.90
40914;DHT22;26638;50.990;4.676;2024-02-04T10:26:18;11.60;99.90
40914;DHT22;26638;50.990;4.676;2024-02-04T10:28:47;11.60;99.90
40914;DHT22;26638;50.990;4.676;2024-02-04T10:31:14;11.70;99.90
40914;DHT22;26638;50.990;4.676;2024-02-04T10:33:40;11.70;99.90
40914;DHT22;26638;50.990;4.676;2024-02-04T10:36:06;11.70;99.90
40914;DHT22;26638;50.990;4.676;2024-02-04T10:38:32;11.70;99.90
40914;DHT22;26638;50.990;4.676;2024-02-04T10:41:01;11.80;99.90
40914;DHT22;26638;50.990;4.676;2024-02-04T10:43:33;11.90;99.90
40914;DHT22;26638;50.990;4.676;2024-02-04T10:48:34;12.10;99.90
40914;DHT22;26638;50.990;4.676;2024-02-04T10:51:11;12.40;99.90
40914;DHT22;26638;50.990;4.676;2024-02-04T10:53:37;12.40;99.90
40914;DHT22;26638;50.990;4.676;2024-02-04T10:56:04;12.40;99.90
40914;DHT22;26638;50.990;4.676;2024-02-04T10:58:31;12.40;99.90
40914;DHT22;26638;50.990;4.676;2024-02-04T11:00:57;12.50;99.90
40914;DHT22;26638;50.990;4.676;2024-02-04T11:03:23;12.60;99.90
40914;DHT22;26638;50.990;4.676;2024-02-04T11:05:53;12.70;99.90
40914;DHT22;26638;50.990;4.676;2024-02-04T11:08:19;12.80;99.90
40914;DHT22;26638;50.990;4.676;2024-02-04T11:10:45;12.80;99.90
40914;DHT22;26638;50.990;4.676;2024-02-04T11:13:11;13.00;99.90
40914;DHT22;26638;50.990;4.676;2024-02-04T11:15:37;12.80;99.90
40914;DHT22;26638;50.990;4.676;2024-02-04T11:18:07;12.70;99.90
40914;DHT22;26638;50.990;4.676;2024-02-04T11:25:47;12.60;99.90
40914;DHT22;26638;50.990;4.676;2024-02-04T11:28:15;12.60;99.90
40914;DHT22;26638;50.990;4.676;2024-02-04T11:30:42;12.50;99.90
40914;DHT22;26638;50.990;4.676;2024-02-04T11:33:10;12.50;99.90
40914;DHT22;26638;50.990;4.676;2024-02-04T11:35:36;12.40;99.90
40914;DHT22;26638;50.990;4.676;2024-02-04T11:38:04;12.50;99.90
40914;DHT22;26638;50.990;4.676;2024-02-04T11:40:39;12.50;99.90
40914;DHT22;26638;50.990;4.676;2024-02-04T11:43:11;12.40;99.90
40914;DHT22;26638;50.990;4.676;2024-02-04T11:45:38;12.40;99.90
40914;DHT22;26638;50.990;4.676;2024-02-04T11:48:10;12.40;99.90
40914;DHT22;26638;50.990;4.676;2024-02-04T11:50:37;12.50;99.90
40914;DHT22;26638;50.990;4.676;2024-02-04T11:55:31;12.40;99.90
40914;DHT22;26638;50.990;4.676;2024-02-04T11:57:57;12.40;99.90
40914;DHT22;26638;50.990;4.676;2024-02-04T12:00:23;12.40;99.90
40914;DHT22;26638;50.990;4.676;2024-02-04T12:03:03;12.40;99.90
40914;DHT22;26638;50.990;4.676;2024-02-04T12:05:31;13.80;99.90
40914;DHT22;26638;50.990;4.676;2024-02-04T12:07:58;12.60;99.90
40914;DHT22;26638;50.990;4.676;2024-02-04T12:10:26;12.70;99.90
40914;DHT22;26638;50.990;4.676;2024-02-04T12:12:52;12.90;99.90
40914;DHT22;26638;50.990;4.676;2024-02-04T12:15:18;13.00;99.90
40914;DHT22;26638;50.990;4.676;2024-02-04T12:17:44;13.20;99.90
40914;DHT22;26638;50.990;4.676;2024-02-04T12:20:10;13.20;99.90
40914;DHT22;26638;50.990;4.676;2024-02-04T12:22:36;13.00;99.90
40914;DHT22;26638;50.990;4.676;2024-02-04T12:25:02;13.00;99.90
40914;DHT22;26638;50.990;4.676;2024-02-04T12:27:28;13.00;99.90
40914;DHT22;26638;50.990;4.676;2024-02-04T12:29:54;12.80;99.90
40914;DHT22;26638;50.990;4.676;2024-02-04T12:32:21;12.70;99.90
40914;DHT22;26638;50.990;4.676;2024-02-04T12:34:47;12.60;99.90
40914;DHT22;26638;50.990;4.676;2024-02-04T12:37:13;12.50;99.90
40914;DHT22;26638;50.990;4.676;2024-02-04T12:39:38;12.50;99.90
40914;DHT22;26638;50.990;4.676;2024-02-04T12:42:05;12.60;99.90
40914;DHT22;26638;50.990;4.676;2024-02-04T12:44:31;12.70;99.90
40914;DHT22;26638;50.990;4.676;2024-02-04T12:46:56;12.90;99.90
40914;DHT22;26638;50.990;4.676;2024-02-04T12:49:22;13.10;99.90
40914;DHT22;26638;50.990;4.676;2024-02-04T12:51:49;13.50;99.90
40914;DHT22;26638;50.990;4.676;2024-02-04T12:54:15;12.90;99.90
40914;DHT22;26638;50.990;4.676;2024-02-04T12:56:50;12.90;99.90
40914;DHT22;26638;50.990;4.676;2024-02-04T12:59:32;13.10;99.90
40914;DHT22;26638;50.990;4.676;2024-02-04T13:02:06;13.00;99.90
40914;DHT22;26638;50.990;4.676;2024-02-04T13:04:42;13.00;99.90
40914;DHT22;26638;50.990;4.676;2024-02-04T13:07:12;13.00;99.90
40914;DHT22;26638;50.990;4.676;2024-02-04T13:09:43;13.10;99.90
40914;DHT22;26638;50.990;4.676;2024-02-04T13:12:10;13.10;99.90
40914;DHT22;26638;50.990;4.676;2024-02-04T13:14:39;13.30;99.90
40914;DHT22;26638;50.990;4.676;2024-02-04T13:17:05;13.20;99.90
40914;DHT22;26638;50.990;4.676;2024-02-04T13:19:34;13.20;99.90
40914;DHT22;26638;50.990;4.676;2024-02-04T13:22:02;13.00;99.90
40914;DHT22;26638;50.990;4.676;2024-02-04T13:24:29;12.90;99.90
40914;DHT22;26638;50.990;4.676;2024-02-04T13:26:57;12.80;99.90
40914;DHT22;26638;50.990;4.676;2024-02-04T13:29:24;12.90;99.90
40914;DHT22;26638;50.990;4.676;2024-02-04T13:31:49;12.70;99.90
40914;DHT22;26638;50.990;4.676;2024-02-04T13:34:15;12.60;99.90
40914;DHT22;26638;50.990;4.676;2024-02-04T13:36:42;12.60;99.90
40914;DHT22;26638;50.990;4.676;2024-02-04T13:39:08;12.60;99.90
40914;DHT22;26638;50.990;4.676;2024-02-04T13:41:33;12.50;99.90
40914;DHT22;26638;50.990;4.676;2024-02-04T13:43:59;12.50;99.90
40914;DHT22;26638;50.990;4.676;2024-02-04T13:46:24;12.60;99.90
40914;DHT22;26638;50.990;4.676;2024-02-04T13:48:53;12.70;99.90
40914;DHT22;26638;50.990;4.676;2024-02-04T13:51:18;12.70;99.90
40914;DHT22;26638;50.990;4.676;2024-02-04T13:53:44;12.70;99.90
40914;DHT22;26638;50.990;4.676;2024-02-04T13:56:09;12.70;99.90
40914;DHT22;26638;50.990;4.676;2024-02-04T13:58:35;12.90;99.90
40914;DHT22;26638;50.990;4.676;2024-02-04T14:01:01;12.80;99.90
40914;DHT22;26638;50.990;4.676;2024-02-04T14:03:26;12.80;99.90
40914;DHT22;26638;50.990;4.676;2024-02-04T14:05:52;12.70;99.90
40914;DHT22;26638;50.990;4.676;2024-02-04T14:08:18;12.70;99.90
40914;DHT22;26638;50.990;4.676;2024-02-04T14:10:43;12.70;99.90
40914;DHT22;26638;50.990;4.676;2024-02-04T14:13:09;12.60;99.90
40914;DHT22;26638;50.990;4.676;2024-02-04T14:15:36;12.60;99.90
40914;DHT22;26638;50.990;4.676;2024-02-04T14:18:02;12.60;99.90
40914;DHT22;26638;50.990;4.676;2024-02-04T14:20:28;12.60;99.90
40914;DHT22;26638;50.990;4.676;2024-02-04T14:22:53;12.70;99.90
40914;DHT22;26638;50.990;4.676;2024-02-04T14:25:19;12.70;99.90
40914;DHT22;26638;50.990;4.676;2024-02-04T14:27:45;12.70;99.90
40914;DHT22;26638;50.990;4.676;2024-02-04T14:30:11;12.70;99.90
40914;DHT22;26638;50.990;4.676;2024-02-04T14:32:37;12.60;99.90
40914;DHT22;26638;50.990;4.676;2024-02-04T14:35:02;12.60;99.90
40914;DHT22;26638;50.990;4.676;2024-02-04T14:37:31;12.70;99.90
40914;DHT22;26638;50.990;4.676;2024-02-04T14:40:00;12.60;99.90
40914;DHT22;26638;50.990;4.676;2024-02-04T14:42:26;12.60;99.90
40914;DHT22;26638;50.990;4.676;2024-02-04T14:44:52;12.50;99.90
40914;DHT22;26638;50.990;4.676;2024-02-04T14:47:18;12.50;99.90
40914;DHT22;26638;50.990;4.676;2024-02-04T14:49:43;12.60;99.90
40914;DHT22;26638;50.990;4.676;2024-02-04T14:52:09;12.70;99.90
40914;DHT22;26638;50.990;4.676;2024-02-04T14:54:35;12.70;99.90
40914;DHT22;26638;50.990;4.676;2024-02-04T14:57:01;12.70;99.90
40914;DHT22;26638;50.990;4.676;2024-02-04T14:59:27;12.70;99.90
40914;DHT22;26638;50.990;4.676;2024-02-04T15:01:52;12.60;99.90
40914;DHT22;26638;50.990;4.676;2024-02-04T15:04:18;12.50;99.90
40914;DHT22;26638;50.990;4.676;2024-02-04T15:06:44;12.50;99.90
40914;DHT22;26638;50.990;4.676;2024-02-04T15:09:10;12.60;99.90
40914;DHT22;26638;50.990;4.676;2024-02-04T15:11:37;12.60;99.90
40914;DHT22;26638;50.990;4.676;2024-02-04T15:14:03;12.50;99.90
40914;DHT22;26638;50.990;4.676;2024-02-04T15:16:29;12.40;99.90
40914;DHT22;26638;50.990;4.676;2024-02-04T15:18:55;12.50;99.90
40914;DHT22;26638;50.990;4.676;2024-02-04T15:21:21;12.40;99.90
40914;DHT22;26638;50.990;4.676;2024-02-04T15:23:49;12.30;99.90
40914;DHT22;26638;50.990;4.676;2024-02-04T15:26:15;12.30;99.90
40914;DHT22;26638;50.990;4.676;2024-02-04T15:28:41;12.30;99.90
40914;DHT22;26638;50.990;4.676;2024-02-04T15:31:08;12.20;99.90
40914;DHT22;26638;50.990;4.676;2024-02-04T15:33:35;12.20;99.90
40914;DHT22;26638;50.990;4.676;2024-02-04T15:36:00;12.30;99.90
40914;DHT22;26638;50.990;4.676;2024-02-04T15:38:26;12.40;99.90
40914;DHT22;26638;50.990;4.676;2024-02-04T15:40:54;12.30;99.90
40914;DHT22;26638;50.990;4.676;2024-02-04T15:43:19;12.20;99.90